Aviation Digital Data Service (ADDS)

Output produced by METARs form (1258 UTC 26 March 2019)
found at http://www.aviationweather.gov/metar/data/
 
FWCL 261100Z 26008KT 9999 SCT040 30/19 Q1016 NOSIG
TAF FWCL 260800Z 2612/2718 23007KT 9999 FEW020 
     BECMG 2616/2620 21006KT CAVOK 
     BECMG 2704/2708 19007KT 9999 FEW025 
     BECMG 2710/2712 21007KT 9999 SCT030